createdAt,value
2023-01-13T00:01:26.870Z,4.22
2023-01-13T00:03:54.106Z,3.85
2023-01-13T00:06:27.496Z,3.78
2023-01-13T00:08:55.388Z,3.90
2023-01-13T00:11:23.476Z,3.30
2023-01-13T00:13:50.702Z,3.80
2023-01-13T00:16:19.169Z,4.03
2023-01-13T00:18:47.169Z,4.35
2023-01-13T00:21:19.965Z,4.38
2023-01-13T00:23:47.499Z,3.88
2023-01-13T00:26:18.101Z,4.10
2023-01-13T00:28:45.547Z,3.97
2023-01-13T00:31:19.093Z,3.88
2023-01-13T00:33:46.930Z,6.10
2023-01-13T00:36:15.608Z,4.00
2023-01-13T00:38:43.458Z,4.28
2023-01-13T00:41:17.387Z,4.60
2023-01-13T00:43:44.565Z,4.50
2023-01-13T00:46:14.611Z,4.80
2023-01-13T00:48:41.942Z,4.10
2023-01-13T00:51:17.187Z,5.00
2023-01-13T00:53:47.216Z,4.60
2023-01-13T00:56:34.025Z,4.50
2023-01-13T00:59:05.512Z,5.30
2023-01-13T01:01:33.203Z,4.78
2023-01-13T01:04:00.363Z,4.85
2023-01-13T01:06:28.391Z,4.50
2023-01-13T01:08:56.069Z,4.60
2023-01-13T01:11:26.991Z,4.70
2023-01-13T01:13:56.904Z,4.70
2023-01-13T01:16:26.810Z,4.30
2023-01-13T01:18:55.685Z,4.85
2023-01-13T01:21:24.710Z,4.80
2023-01-13T01:23:52.149Z,4.78
2023-01-13T01:26:22.653Z,4.35
2023-01-13T01:28:50.372Z,5.10
2023-01-13T01:31:20.831Z,4.97
2023-01-13T01:33:48.154Z,4.80
2023-01-13T01:36:17.975Z,4.82
2023-01-13T01:38:45.719Z,5.45
2023-01-13T01:41:16.606Z,5.03
2023-01-13T01:44:25.894Z,5.30
2023-01-13T01:46:53.774Z,5.25
2023-01-13T01:49:32.360Z,5.40
2023-01-13T01:52:02.740Z,5.38
2023-01-13T01:54:43.989Z,5.00
2023-01-13T01:57:15.988Z,5.05
2023-01-13T01:59:44.662Z,5.43
2023-01-13T02:02:12.474Z,5.30
2023-01-13T02:04:50.288Z,6.07
2023-01-13T02:07:28.854Z,6.15
2023-01-13T02:09:58.997Z,5.43
2023-01-13T02:12:32.063Z,5.60
2023-01-13T02:15:10.441Z,5.22
2023-01-13T02:17:40.202Z,6.43
2023-01-13T02:20:12.904Z,6.18
2023-01-13T02:23:43.095Z,6.20
2023-01-13T02:26:32.114Z,5.88
2023-01-13T02:29:40.173Z,5.53
2023-01-13T02:32:27.250Z,5.70
2023-01-13T02:35:08.487Z,5.22
2023-01-13T02:37:39.214Z,5.65
2023-01-13T02:40:27.483Z,5.55
2023-01-13T02:43:35.927Z,5.72
2023-01-13T02:46:10.854Z,5.15
2023-01-13T02:48:39.789Z,5.13
2023-01-13T02:51:15.785Z,5.95
2023-01-13T02:54:20.942Z,5.03
2023-01-13T02:57:41.155Z,4.60
2023-01-13T03:02:37.084Z,4.60
2023-01-13T03:05:05.806Z,5.25
2023-01-13T03:07:55.776Z,5.23
2023-01-13T03:10:49.792Z,5.53
2023-01-13T03:13:45.151Z,4.93
2023-01-13T03:16:27.876Z,4.65
2023-01-13T03:19:13.453Z,5.00
2023-01-13T03:22:09.003Z,4.00
2023-01-13T03:25:02.773Z,4.18
2023-01-13T03:27:38.413Z,4.65
2023-01-13T03:30:17.973Z,3.92
2023-01-13T03:32:52.929Z,4.60
2023-01-13T03:35:22.881Z,3.97
2023-01-13T03:38:04.145Z,4.30
2023-01-13T03:40:35.722Z,3.83
2023-01-13T03:43:28.291Z,3.67
2023-01-13T03:46:01.465Z,3.65
2023-01-13T03:48:33.149Z,3.35
2023-01-13T03:51:06.603Z,3.80
2023-01-13T03:53:39.498Z,3.58
2023-01-13T03:56:16.906Z,3.72
2023-01-13T03:58:48.653Z,3.80
2023-01-13T04:01:22.166Z,3.72
2023-01-13T04:04:06.187Z,3.63
2023-01-13T04:06:51.616Z,3.60
2023-01-13T04:09:43.507Z,4.28
2023-01-13T04:12:10.773Z,3.70
2023-01-13T04:14:38.869Z,3.50
2023-01-13T04:17:06.192Z,3.50
2023-01-13T04:19:33.251Z,3.90
2023-01-13T04:22:00.659Z,4.20
2023-01-13T04:24:28.098Z,4.20
2023-01-13T04:26:56.508Z,3.90
2023-01-13T04:29:23.813Z,4.03
2023-01-13T04:31:51.196Z,3.92
2023-01-13T04:34:18.257Z,3.72
2023-01-13T04:36:45.635Z,4.07
2023-01-13T04:39:12.801Z,4.13
2023-01-13T04:41:58.184Z,5.80
2023-01-13T04:44:26.425Z,7.15
2023-01-13T04:46:54.180Z,5.53
2023-01-13T04:49:21.264Z,4.63
2023-01-13T04:51:48.749Z,5.50
2023-01-13T04:54:16.288Z,5.20
2023-01-13T04:56:43.659Z,4.90
2023-01-13T04:59:13.247Z,5.05
2023-01-13T05:04:08.980Z,4.40
2023-01-13T05:06:36.362Z,4.78
2023-01-13T05:09:03.669Z,5.40
2023-01-13T05:11:49.560Z,4.10
2023-01-13T05:14:35.095Z,4.70
2023-01-13T05:17:03.375Z,5.05
2023-01-13T05:19:33.381Z,3.88
2023-01-13T05:22:20.427Z,4.20
2023-01-13T05:25:06.285Z,4.10
2023-01-13T05:27:33.970Z,4.07
2023-01-13T05:30:00.987Z,3.72
2023-01-13T05:32:28.649Z,3.50
2023-01-13T05:34:56.224Z,3.35
2023-01-13T05:37:25.696Z,4.07
2023-01-13T05:40:11.119Z,4.30
2023-01-13T05:42:57.694Z,3.30
2023-01-13T05:45:25.034Z,2.95
2023-01-13T05:47:52.390Z,3.55
2023-01-13T05:50:19.543Z,4.40
2023-01-13T05:52:46.910Z,3.38
2023-01-13T05:55:14.719Z,2.75
2023-01-13T05:57:42.181Z,3.25
2023-01-13T06:00:09.899Z,2.90
2023-01-13T06:02:40.114Z,2.38
2023-01-13T06:05:07.789Z,2.25
2023-01-13T06:07:35.107Z,2.47
2023-01-13T06:10:02.265Z,3.05
2023-01-13T06:12:29.841Z,3.80
2023-01-13T06:14:56.928Z,4.10
2023-01-13T06:17:24.320Z,4.03
2023-01-13T06:19:51.424Z,3.13
2023-01-13T06:22:23.543Z,4.10
2023-01-13T06:24:53.632Z,4.65
2023-01-13T06:27:22.636Z,3.72
2023-01-13T06:29:49.896Z,3.30
2023-01-13T06:32:29.398Z,4.57
2023-01-13T06:35:06.553Z,8.57
2023-01-13T06:37:35.906Z,7.90
2023-01-13T06:40:06.545Z,7.68
2023-01-13T06:42:55.611Z,5.50
2023-01-13T06:45:25.434Z,6.50
2023-01-13T06:47:54.569Z,5.68
2023-01-13T06:50:21.686Z,5.40
2023-01-13T06:52:49.129Z,5.90
2023-01-13T06:55:16.393Z,4.25
2023-01-13T06:57:52.856Z,6.38
2023-01-13T07:00:21.668Z,5.25
2023-01-13T07:02:49.940Z,4.88
2023-01-13T07:05:18.233Z,4.10
2023-01-13T07:07:46.034Z,4.38
2023-01-13T07:10:22.333Z,4.57
2023-01-13T07:13:08.938Z,5.40
2023-01-13T07:15:36.096Z,4.50
2023-01-13T07:18:03.650Z,4.47
2023-01-13T07:20:31.608Z,3.88
2023-01-13T07:22:59.173Z,5.05
2023-01-13T07:25:26.274Z,6.38
2023-01-13T07:27:53.794Z,8.07
2023-01-13T07:30:20.984Z,5.00
2023-01-13T07:32:48.464Z,5.43
2023-01-13T07:35:15.770Z,5.88
2023-01-13T07:37:43.221Z,6.38
2023-01-13T07:40:11.028Z,10.25
2023-01-13T07:42:57.680Z,6.00
2023-01-13T07:45:24.822Z,28.98
2023-01-13T07:47:53.680Z,30.30
2023-01-13T07:50:21.682Z,37.35
2023-01-13T07:52:49.719Z,47.58
2023-01-13T07:55:17.069Z,11.02
2023-01-13T07:57:44.642Z,18.02
2023-01-13T08:00:13.090Z,44.72
2023-01-13T08:02:41.070Z,13.65
2023-01-13T08:05:08.782Z,16.40
2023-01-13T08:07:36.154Z,11.32
2023-01-13T08:10:04.523Z,8.57
2023-01-13T08:12:54.585Z,12.25
2023-01-13T08:15:24.132Z,9.52
2023-01-13T08:17:51.583Z,25.02
2023-01-13T08:20:19.230Z,14.10
2023-01-13T08:22:46.775Z,21.60
2023-01-13T08:25:13.908Z,35.63
2023-01-13T08:27:41.474Z,11.40
2023-01-13T08:30:09.721Z,28.35
2023-01-13T08:32:37.095Z,21.05
2023-01-13T08:35:04.367Z,9.68
2023-01-13T08:37:31.787Z,50.42
2023-01-13T08:39:58.813Z,25.67
2023-01-13T08:42:26.945Z,19.63
2023-01-13T08:44:54.808Z,13.90
2023-01-13T08:47:22.718Z,17.85
2023-01-13T08:49:50.098Z,18.52
2023-01-13T08:52:17.513Z,18.85
2023-01-13T08:54:44.685Z,11.07
2023-01-13T08:57:12.665Z,31.25
2023-01-13T08:59:39.895Z,46.47
2023-01-13T09:02:15.411Z,25.02
2023-01-13T09:04:43.425Z,12.40
2023-01-13T09:07:10.990Z,6.97
2023-01-13T09:09:38.960Z,12.18
2023-01-13T09:12:25.573Z,19.38
2023-01-13T09:14:53.030Z,12.45
2023-01-13T09:17:20.683Z,14.70
2023-01-13T09:19:47.829Z,9.23
2023-01-13T09:22:17.926Z,6.35
2023-01-13T09:24:45.514Z,23.55
2023-01-13T09:27:15.028Z,36.10
2023-01-13T09:29:42.198Z,14.40
2023-01-13T09:32:14.837Z,19.30
2023-01-13T09:35:00.349Z,10.50
2023-01-13T09:37:32.556Z,23.77
2023-01-13T09:40:00.622Z,18.73
2023-01-13T09:43:07.857Z,22.65
2023-01-13T09:45:42.611Z,14.45
2023-01-13T09:48:25.558Z,17.30
2023-01-13T09:51:18.799Z,10.02
2023-01-13T09:54:11.158Z,10.05
2023-01-13T09:56:38.399Z,17.38
2023-01-13T09:59:11.715Z,29.55
2023-01-13T10:01:59.374Z,42.90
2023-01-13T10:04:27.047Z,26.10
2023-01-13T10:06:59.599Z,12.88
2023-01-13T10:09:49.717Z,4.70
2023-01-13T10:12:41.130Z,28.27
2023-01-13T10:15:17.910Z,5.00
2023-01-13T10:17:54.315Z,26.35
2023-01-13T10:20:24.978Z,11.38
2023-01-13T10:23:07.078Z,8.68
2023-01-13T10:25:40.445Z,7.85
2023-01-13T10:28:13.538Z,5.28
2023-01-13T10:30:44.091Z,8.45
2023-01-13T10:33:17.732Z,5.57
2023-01-13T10:36:01.430Z,15.35
2023-01-13T10:38:36.644Z,17.13
2023-01-13T10:41:20.394Z,10.77
2023-01-13T10:44:04.471Z,7.75
2023-01-13T10:46:34.054Z,7.85
2023-01-13T10:49:03.662Z,5.28
2023-01-13T10:51:43.055Z,17.15
2023-01-13T10:54:13.026Z,23.30
2023-01-13T10:56:43.422Z,28.92
2023-01-13T10:59:22.204Z,19.60
2023-01-13T11:02:04.056Z,25.30
2023-01-13T11:04:42.728Z,18.23
2023-01-13T11:07:45.754Z,72.95
2023-01-13T11:10:27.397Z,19.08
2023-01-13T11:13:15.398Z,9.38
2023-01-13T11:15:47.478Z,15.43
2023-01-13T11:18:40.664Z,9.38
2023-01-13T11:21:21.901Z,20.48
2023-01-13T11:24:14.767Z,17.80
2023-01-13T11:26:53.944Z,17.40
2023-01-13T11:29:31.736Z,9.80
2023-01-13T11:32:22.476Z,6.07
2023-01-13T11:35:02.150Z,10.15
2023-01-13T11:37:34.819Z,15.10
2023-01-13T11:40:11.941Z,4.00
2023-01-13T11:42:59.976Z,5.93
2023-01-13T11:45:56.227Z,6.88
2023-01-13T11:48:27.339Z,5.32
2023-01-13T11:51:22.849Z,4.60
2023-01-13T11:54:01.010Z,2.67
2023-01-13T11:56:40.757Z,8.90
2023-01-13T11:59:32.462Z,7.80
2023-01-13T12:02:12.262Z,5.78
2023-01-13T12:04:40.070Z,3.17
2023-01-13T12:07:40.330Z,13.05
2023-01-13T12:10:28.817Z,8.05
2023-01-13T12:13:24.794Z,3.40
2023-01-13T12:16:01.169Z,3.78
2023-01-13T12:18:40.699Z,6.55
2023-01-13T12:21:23.586Z,7.38
2023-01-13T12:24:12.295Z,31.50
2023-01-13T12:26:44.965Z,32.97
2023-01-13T12:29:19.121Z,28.13
2023-01-13T12:31:50.623Z,19.67
2023-01-13T12:34:39.025Z,30.73
2023-01-13T12:37:25.004Z,20.98
2023-01-13T12:40:27.246Z,17.83
2023-01-13T12:43:22.193Z,19.42
2023-01-13T12:45:49.414Z,13.40
2023-01-13T12:48:53.086Z,9.38
2023-01-13T12:51:52.480Z,12.20
2023-01-13T12:54:38.713Z,9.05
2023-01-13T12:57:29.394Z,11.60
2023-01-13T12:59:59.752Z,37.33
2023-01-13T13:02:31.215Z,24.40
2023-01-13T13:05:24.480Z,38.38
2023-01-13T13:08:07.010Z,70.07
2023-01-13T13:10:40.781Z,44.53
2023-01-13T13:13:41.538Z,40.92
2023-01-13T13:16:37.335Z,34.55
2023-01-13T13:19:22.659Z,17.95
2023-01-13T13:22:18.008Z,13.15
2023-01-13T13:24:51.951Z,15.43
2023-01-13T13:27:19.879Z,13.00
2023-01-13T13:30:28.847Z,10.02
2023-01-13T13:33:05.015Z,9.65
2023-01-13T13:35:51.962Z,7.15
2023-01-13T13:38:41.320Z,6.78
2023-01-13T13:41:54.580Z,9.57
2023-01-13T13:45:01.349Z,9.55
2023-01-13T13:47:39.406Z,12.75
2023-01-13T13:50:20.942Z,17.65
2023-01-13T13:53:05.919Z,16.33
2023-01-13T13:55:33.689Z,10.38
2023-01-13T13:58:01.906Z,8.38
2023-01-13T14:00:33.441Z,8.90
2023-01-13T14:03:04.168Z,5.93
2023-01-13T14:05:36.299Z,6.28
2023-01-13T14:08:09.327Z,15.23
2023-01-13T14:10:39.970Z,12.98
2023-01-13T14:13:14.717Z,12.43
2023-01-13T14:15:42.908Z,13.25
2023-01-13T14:18:17.442Z,10.45
2023-01-13T14:20:53.940Z,13.98
2023-01-13T14:23:26.602Z,9.68
2023-01-13T14:25:54.727Z,7.75
2023-01-13T14:28:28.414Z,12.38
2023-01-13T14:30:57.419Z,7.90
2023-01-13T14:33:49.960Z,7.68
2023-01-13T14:36:32.720Z,4.75
2023-01-13T14:39:03.117Z,9.95
2023-01-13T14:41:42.881Z,4.93
2023-01-13T14:44:27.600Z,9.07
2023-01-13T14:46:58.177Z,6.63
2023-01-13T14:49:39.548Z,9.52
2023-01-13T14:52:19.097Z,6.28
2023-01-13T14:54:49.331Z,8.38
2023-01-13T14:57:33.802Z,15.32
2023-01-13T15:00:08.106Z,19.10
2023-01-13T15:02:58.096Z,17.15
2023-01-13T15:08:09.295Z,21.10
2023-01-13T15:10:46.818Z,13.10
2023-01-13T15:13:38.623Z,24.65
2023-01-13T15:16:27.511Z,20.00
2023-01-13T15:18:56.596Z,21.20
2023-01-13T15:21:25.174Z,8.65
2023-01-13T15:23:52.886Z,10.73
2023-01-13T15:26:29.271Z,10.90
2023-01-13T15:28:58.430Z,6.07
2023-01-13T15:31:27.282Z,5.50
2023-01-13T15:33:55.489Z,4.65
2023-01-13T15:36:27.528Z,5.40
2023-01-13T15:38:56.498Z,5.18
2023-01-13T15:41:43.514Z,4.13
2023-01-13T15:44:32.482Z,4.15
2023-01-13T15:47:03.177Z,3.80
2023-01-13T15:49:41.085Z,3.72
2023-01-13T15:52:26.223Z,59.90
2023-01-13T15:54:54.872Z,24.85
2023-01-13T15:57:24.804Z,6.35
2023-01-13T15:59:56.698Z,8.27
2023-01-13T16:02:25.394Z,13.43
2023-01-13T16:04:57.029Z,5.90
2023-01-13T16:07:25.917Z,19.05
2023-01-13T16:09:53.995Z,15.30
2023-01-13T16:12:21.351Z,10.10
2023-01-13T16:14:49.546Z,6.93
2023-01-13T16:17:23.045Z,7.75
2023-01-13T16:19:51.561Z,6.10
2023-01-13T16:22:19.234Z,8.80
2023-01-13T16:24:48.341Z,9.85
2023-01-13T16:27:21.349Z,8.80
2023-01-13T16:29:49.909Z,7.10
2023-01-13T16:32:18.245Z,7.72
2023-01-13T16:34:46.820Z,7.57
2023-01-13T16:37:22.041Z,8.60
2023-01-13T16:39:50.904Z,16.48
2023-01-13T16:42:18.910Z,24.70
2023-01-13T16:44:48.405Z,16.88
2023-01-13T16:47:17.827Z,26.33
2023-01-13T16:52:13.435Z,10.40
2023-01-13T16:54:41.274Z,11.18
2023-01-13T16:57:13.577Z,7.18
2023-01-13T16:59:41.211Z,7.00
2023-01-13T17:02:19.717Z,7.38
2023-01-13T17:04:48.634Z,6.10
2023-01-13T17:07:17.506Z,7.82
2023-01-13T17:09:45.382Z,10.60
2023-01-13T17:12:12.780Z,7.03
2023-01-13T17:14:43.246Z,12.43
2023-01-13T17:17:21.717Z,10.38
2023-01-13T17:19:49.711Z,14.25
2023-01-13T17:22:17.223Z,11.77
2023-01-13T17:24:46.115Z,9.32
2023-01-13T17:27:15.250Z,13.45
2023-01-13T17:29:43.166Z,12.35
2023-01-13T17:32:18.637Z,15.13
2023-01-13T17:34:46.450Z,14.60
2023-01-13T17:37:14.683Z,14.23
2023-01-13T17:39:44.285Z,10.48
2023-01-13T17:42:12.375Z,14.33
2023-01-13T17:44:40.122Z,14.10
2023-01-13T17:47:08.626Z,12.10
2023-01-13T17:49:36.556Z,13.68
2023-01-13T17:52:04.035Z,16.40
2023-01-13T17:54:31.649Z,14.27
2023-01-13T17:56:59.070Z,10.77
2023-01-13T17:59:26.699Z,8.57
2023-01-13T18:01:54.101Z,9.77
2023-01-13T18:04:24.584Z,11.82
2023-01-13T18:06:52.077Z,13.27
2023-01-13T18:09:20.069Z,12.30
2023-01-13T18:11:47.511Z,22.20
2023-01-13T18:14:16.104Z,14.20
2023-01-13T18:16:43.945Z,14.40
2023-01-13T18:19:30.172Z,16.42
2023-01-13T18:22:16.033Z,12.43
2023-01-13T18:25:02.251Z,12.35
2023-01-13T18:27:35.606Z,17.08
2023-01-13T18:30:04.328Z,14.45
2023-01-13T18:32:33.911Z,18.17
2023-01-13T18:35:06.706Z,18.17
2023-01-13T18:37:42.334Z,18.23
2023-01-13T18:40:13.017Z,17.63
2023-01-13T18:42:58.353Z,22.63
2023-01-13T18:45:28.808Z,31.13
2023-01-13T18:47:58.688Z,24.10
2023-01-13T18:50:28.311Z,12.80
2023-01-13T18:52:56.683Z,12.50
2023-01-13T18:55:25.424Z,21.10
2023-01-13T18:57:53.695Z,10.02
2023-01-13T19:00:22.868Z,10.57
2023-01-13T19:05:36.230Z,9.88
2023-01-13T19:08:04.650Z,6.85
2023-01-13T19:10:32.970Z,4.88
2023-01-13T19:13:01.686Z,4.88
2023-01-13T19:15:30.318Z,4.53
2023-01-13T19:17:58.185Z,5.40
2023-01-13T19:20:26.108Z,5.18
2023-01-13T19:22:56.260Z,6.47
2023-01-13T19:25:24.944Z,6.00
2023-01-13T19:27:54.465Z,6.28
2023-01-13T19:30:24.474Z,6.18
2023-01-13T19:32:53.387Z,5.60
2023-01-13T19:35:30.001Z,6.63
2023-01-13T19:37:58.609Z,3.92
2023-01-13T19:40:26.561Z,4.90
2023-01-13T19:43:12.547Z,4.47
2023-01-13T19:45:41.271Z,4.90
2023-01-13T19:48:08.635Z,4.40
2023-01-13T19:50:39.820Z,3.67
2023-01-13T19:53:07.879Z,4.20
2023-01-13T19:55:35.596Z,19.48
2023-01-13T19:58:03.943Z,73.60
2023-01-13T20:00:32.549Z,35.70
2023-01-13T20:03:03.560Z,28.05
2023-01-13T20:05:31.353Z,15.57
2023-01-13T20:07:58.697Z,15.35
2023-01-13T20:10:26.533Z,16.55
2023-01-13T20:12:53.911Z,18.30
2023-01-13T20:15:21.494Z,17.55
2023-01-13T20:17:49.259Z,14.45
2023-01-13T20:20:18.644Z,20.38
2023-01-13T20:22:46.363Z,14.70
2023-01-13T20:25:16.988Z,19.83
2023-01-13T20:27:46.356Z,13.13
2023-01-13T20:30:14.460Z,12.88
2023-01-13T20:32:43.133Z,27.42
2023-01-13T20:35:11.767Z,15.43
2023-01-13T20:37:40.255Z,7.65
2023-01-13T20:40:10.536Z,11.77
2023-01-13T20:45:17.808Z,12.85
2023-01-13T20:47:45.990Z,12.60
2023-01-13T20:50:15.052Z,23.83
2023-01-13T20:52:42.455Z,20.52
2023-01-13T20:55:11.623Z,13.77
2023-01-13T20:57:40.457Z,8.32
2023-01-13T21:00:10.434Z,6.78
2023-01-13T21:02:39.949Z,6.55
2023-01-13T21:05:08.660Z,7.22
2023-01-13T21:07:36.062Z,7.75
2023-01-13T21:10:04.348Z,6.55
2023-01-13T21:12:55.291Z,6.95
2023-01-13T21:15:24.098Z,11.60
2023-01-13T21:18:10.276Z,10.90
2023-01-13T21:20:39.805Z,11.95
2023-01-13T21:23:07.966Z,13.55
2023-01-13T21:25:37.364Z,18.20
2023-01-13T21:28:06.009Z,11.80
2023-01-13T21:30:34.373Z,7.13
2023-01-13T21:33:04.011Z,6.38
2023-01-13T21:35:31.612Z,12.10
2023-01-13T21:37:59.293Z,7.15
2023-01-13T21:40:27.250Z,13.18
2023-01-13T21:43:13.466Z,8.35
2023-01-13T21:46:00.126Z,5.85
2023-01-13T21:48:27.514Z,10.07
2023-01-13T21:50:59.231Z,11.27
2023-01-13T21:53:26.447Z,7.53
2023-01-13T21:55:54.045Z,8.30
2023-01-13T21:58:21.140Z,11.15
2023-01-13T22:00:49.812Z,9.20
2023-01-13T22:03:18.726Z,12.80
2023-01-13T22:05:46.599Z,13.02
2023-01-13T22:08:13.788Z,11.07
2023-01-13T22:11:10.570Z,7.47
2023-01-13T22:14:16.245Z,7.60
2023-01-13T22:16:49.456Z,12.98
2023-01-13T22:19:18.272Z,13.57
2023-01-13T22:21:45.725Z,14.38
2023-01-13T22:24:12.873Z,11.27
2023-01-13T22:26:40.375Z,7.70
2023-01-13T22:29:07.441Z,6.25
2023-01-13T22:31:35.346Z,8.60
2023-01-13T22:34:02.587Z,10.55
2023-01-13T22:36:30.049Z,5.40
2023-01-13T22:38:57.192Z,7.97
2023-01-13T22:41:24.733Z,6.90
2023-01-13T22:43:51.986Z,6.55
2023-01-13T22:46:19.600Z,5.30
2023-01-13T22:48:48.350Z,4.32
2023-01-13T22:51:18.745Z,4.63
2023-01-13T22:53:46.053Z,5.32
2023-01-13T22:56:22.222Z,4.00
2023-01-13T22:58:53.835Z,4.80
2023-01-13T23:01:22.404Z,3.53
2023-01-13T23:03:50.627Z,6.38
2023-01-13T23:06:19.652Z,4.70
2023-01-13T23:08:47.653Z,3.95
2023-01-13T23:11:17.928Z,4.00
2023-01-13T23:16:15.350Z,2.72
2023-01-13T23:18:45.245Z,2.65
2023-01-13T23:21:18.064Z,3.55
2023-01-13T23:23:45.966Z,2.97
2023-01-13T23:26:13.574Z,4.05
2023-01-13T23:28:40.882Z,3.88
2023-01-13T23:31:17.447Z,4.07
2023-01-13T23:33:45.327Z,3.50
2023-01-13T23:36:16.102Z,4.75
2023-01-13T23:38:43.639Z,4.50
2023-01-13T23:41:19.693Z,4.45
2023-01-13T23:44:00.263Z,5.43
2023-01-13T23:46:30.157Z,5.32
2023-01-13T23:48:57.360Z,3.95
2023-01-13T23:51:26.362Z,3.20
2023-01-13T23:53:54.163Z,2.67
2023-01-13T23:56:26.834Z,3.40
2023-01-13T23:58:54.504Z,3.38
